sensor_id;sensor_type;location;lat;lon;timestamp;P1;durP1;ratioP1;P2;durP2;ratioP2
11572;SDS011;5842;52.426;4.886;2022-10-16T00:00:03;4.47;;;2.00;;
11572;SDS011;5842;52.426;4.886;2022-10-16T00:02:31;4.90;;;1.70;;
11572;SDS011;5842;52.426;4.886;2022-10-16T00:04:58;6.20;;;2.00;;
11572;SDS011;5842;52.426;4.886;2022-10-16T00:07:25;2.70;;;1.40;;
11572;SDS011;5842;52.426;4.886;2022-10-16T00:09:53;5.07;;;1.97;;
11572;SDS011;5842;52.426;4.886;2022-10-16T00:12:20;5.63;;;1.83;;
11572;SDS011;5842;52.426;4.886;2022-10-16T00:14:49;4.23;;;1.83;;
11572;SDS011;5842;52.426;4.886;2022-10-16T00:17:17;6.27;;;1.80;;
11572;SDS011;5842;52.426;4.886;2022-10-16T00:19:44;3.20;;;1.80;;
11572;SDS011;5842;52.426;4.886;2022-10-16T00:22:11;5.83;;;2.23;;
11572;SDS011;5842;52.426;4.886;2022-10-16T00:24:38;3.00;;;2.00;;
11572;SDS011;5842;52.426;4.886;2022-10-16T00:27:05;3.10;;;1.80;;
11572;SDS011;5842;52.426;4.886;2022-10-16T00:29:32;5.90;;;2.10;;
11572;SDS011;5842;52.426;4.886;2022-10-16T00:32:01;3.83;;;2.10;;
11572;SDS011;5842;52.426;4.886;2022-10-16T00:34:28;3.93;;;2.13;;
11572;SDS011;5842;52.426;4.886;2022-10-16T00:36:55;7.53;;;2.43;;
11572;SDS011;5842;52.426;4.886;2022-10-16T00:39:22;4.37;;;2.70;;
11572;SDS011;5842;52.426;4.886;2022-10-16T00:41:49;7.30;;;2.67;;
11572;SDS011;5842;52.426;4.886;2022-10-16T00:47:13;5.13;;;2.10;;
11572;SDS011;5842;52.426;4.886;2022-10-16T00:49:46;3.73;;;2.30;;
11572;SDS011;5842;52.426;4.886;2022-10-16T00:52:14;4.53;;;2.20;;
11572;SDS011;5842;52.426;4.886;2022-10-16T00:54:41;6.87;;;2.67;;
11572;SDS011;5842;52.426;4.886;2022-10-16T00:57:08;5.60;;;2.30;;
11572;SDS011;5842;52.426;4.886;2022-10-16T00:59:36;5.07;;;2.67;;
11572;SDS011;5842;52.426;4.886;2022-10-16T01:02:07;3.97;;;2.30;;
11572;SDS011;5842;52.426;4.886;2022-10-16T01:04:38;6.23;;;2.50;;
11572;SDS011;5842;52.426;4.886;2022-10-16T01:07:10;4.13;;;2.47;;
11572;SDS011;5842;52.426;4.886;2022-10-16T01:09:44;5.03;;;2.70;;
11572;SDS011;5842;52.426;4.886;2022-10-16T01:12:22;5.10;;;2.43;;
11572;SDS011;5842;52.426;4.886;2022-10-16T01:14:59;6.73;;;3.00;;
11572;SDS011;5842;52.426;4.886;2022-10-16T01:17:34;4.00;;;2.70;;
11572;SDS011;5842;52.426;4.886;2022-10-16T01:20:09;4.43;;;2.67;;
11572;SDS011;5842;52.426;4.886;2022-10-16T01:22:44;4.10;;;2.80;;
11572;SDS011;5842;52.426;4.886;2022-10-16T01:25:25;4.27;;;2.90;;
11572;SDS011;5842;52.426;4.886;2022-10-16T01:28:05;4.90;;;3.20;;
11572;SDS011;5842;52.426;4.886;2022-10-16T01:30:35;3.93;;;2.97;;
11572;SDS011;5842;52.426;4.886;2022-10-16T01:33:06;5.07;;;3.67;;
11572;SDS011;5842;52.426;4.886;2022-10-16T01:35:41;6.23;;;4.00;;
11572;SDS011;5842;52.426;4.886;2022-10-16T01:38:14;6.57;;;3.70;;
11572;SDS011;5842;52.426;4.886;2022-10-16T01:40:46;5.10;;;4.23;;
11572;SDS011;5842;52.426;4.886;2022-10-16T01:43:20;7.07;;;4.97;;
11572;SDS011;5842;52.426;4.886;2022-10-16T01:45:51;12.70;;;7.40;;
11572;SDS011;5842;52.426;4.886;2022-10-16T01:48:19;6.63;;;5.37;;
11572;SDS011;5842;52.426;4.886;2022-10-16T01:50:49;9.27;;;7.17;;
11572;SDS011;5842;52.426;4.886;2022-10-16T01:53:22;7.10;;;5.30;;
11572;SDS011;5842;52.426;4.886;2022-10-16T01:55:50;4.73;;;4.23;;
11572;SDS011;5842;52.426;4.886;2022-10-16T01:58:23;4.33;;;3.50;;
11572;SDS011;5842;52.426;4.886;2022-10-16T02:00:51;3.83;;;2.20;;
11572;SDS011;5842;52.426;4.886;2022-10-16T02:03:20;4.17;;;2.40;;
11572;SDS011;5842;52.426;4.886;2022-10-16T02:05:49;4.47;;;2.20;;
11572;SDS011;5842;52.426;4.886;2022-10-16T02:08:19;4.87;;;2.97;;
11572;SDS011;5842;52.426;4.886;2022-10-16T02:10:49;4.87;;;3.43;;
11572;SDS011;5842;52.426;4.886;2022-10-16T02:13:17;7.13;;;3.90;;
11572;SDS011;5842;52.426;4.886;2022-10-16T02:15:48;7.70;;;4.70;;
11572;SDS011;5842;52.426;4.886;2022-10-16T02:18:15;7.63;;;6.47;;
11572;SDS011;5842;52.426;4.886;2022-10-16T02:20:44;7.17;;;5.50;;
11572;SDS011;5842;52.426;4.886;2022-10-16T02:23:18;7.73;;;5.57;;
11572;SDS011;5842;52.426;4.886;2022-10-16T02:25:50;7.03;;;6.43;;
11572;SDS011;5842;52.426;4.886;2022-10-16T02:28:22;8.33;;;7.50;;
11572;SDS011;5842;52.426;4.886;2022-10-16T02:30:54;7.97;;;6.37;;
11572;SDS011;5842;52.426;4.886;2022-10-16T02:33:25;6.83;;;6.23;;
11572;SDS011;5842;52.426;4.886;2022-10-16T02:35:54;10.13;;;6.57;;
11572;SDS011;5842;52.426;4.886;2022-10-16T02:38:21;7.13;;;6.43;;
11572;SDS011;5842;52.426;4.886;2022-10-16T02:40:50;5.40;;;4.90;;
11572;SDS011;5842;52.426;4.886;2022-10-16T02:43:18;7.93;;;5.30;;
11572;SDS011;5842;52.426;4.886;2022-10-16T02:45:46;5.30;;;4.30;;
11572;SDS011;5842;52.426;4.886;2022-10-16T02:48:14;10.73;;;8.37;;
11572;SDS011;5842;52.426;4.886;2022-10-16T02:50:41;11.73;;;10.47;;
11572;SDS011;5842;52.426;4.886;2022-10-16T02:53:08;10.77;;;9.77;;
11572;SDS011;5842;52.426;4.886;2022-10-16T02:55:36;11.37;;;10.27;;
11572;SDS011;5842;52.426;4.886;2022-10-16T02:58:03;6.50;;;5.40;;
11572;SDS011;5842;52.426;4.886;2022-10-16T03:00:30;5.93;;;3.70;;
11572;SDS011;5842;52.426;4.886;2022-10-16T03:02:57;5.03;;;3.60;;
11572;SDS011;5842;52.426;4.886;2022-10-16T03:05:25;6.43;;;3.10;;
11572;SDS011;5842;52.426;4.886;2022-10-16T03:07:53;5.00;;;3.97;;
11572;SDS011;5842;52.426;4.886;2022-10-16T03:10:20;4.50;;;3.67;;
11572;SDS011;5842;52.426;4.886;2022-10-16T03:12:48;6.23;;;5.63;;
11572;SDS011;5842;52.426;4.886;2022-10-16T03:15:15;8.93;;;7.97;;
11572;SDS011;5842;52.426;4.886;2022-10-16T03:17:42;11.00;;;8.70;;
11572;SDS011;5842;52.426;4.886;2022-10-16T03:20:09;10.93;;;9.83;;
11572;SDS011;5842;52.426;4.886;2022-10-16T03:22:38;12.50;;;11.33;;
11572;SDS011;5842;52.426;4.886;2022-10-16T03:25:05;14.93;;;13.43;;
11572;SDS011;5842;52.426;4.886;2022-10-16T03:27:33;14.90;;;13.30;;
11572;SDS011;5842;52.426;4.886;2022-10-16T03:30:00;13.83;;;12.43;;
11572;SDS011;5842;52.426;4.886;2022-10-16T03:32:27;12.10;;;10.80;;
11572;SDS011;5842;52.426;4.886;2022-10-16T03:34:54;7.97;;;6.90;;
11572;SDS011;5842;52.426;4.886;2022-10-16T03:37:22;7.13;;;4.90;;
11572;SDS011;5842;52.426;4.886;2022-10-16T03:39:50;4.67;;;3.60;;
11572;SDS011;5842;52.426;4.886;2022-10-16T03:42:17;4.70;;;3.50;;
11572;SDS011;5842;52.426;4.886;2022-10-16T03:44:45;4.50;;;3.40;;
11572;SDS011;5842;52.426;4.886;2022-10-16T03:47:12;6.00;;;3.53;;
11572;SDS011;5842;52.426;4.886;2022-10-16T03:49:39;7.87;;;5.57;;
11572;SDS011;5842;52.426;4.886;2022-10-16T03:52:06;8.07;;;5.40;;
11572;SDS011;5842;52.426;4.886;2022-10-16T03:54:33;9.23;;;8.27;;
11572;SDS011;5842;52.426;4.886;2022-10-16T03:57:02;8.97;;;5.90;;
11572;SDS011;5842;52.426;4.886;2022-10-16T03:59:29;4.33;;;3.93;;
11572;SDS011;5842;52.426;4.886;2022-10-16T04:01:56;13.83;;;12.40;;
11572;SDS011;5842;52.426;4.886;2022-10-16T04:04:23;9.23;;;8.23;;
11572;SDS011;5842;52.426;4.886;2022-10-16T04:06:51;16.43;;;14.63;;
11572;SDS011;5842;52.426;4.886;2022-10-16T04:09:18;14.50;;;11.90;;
11572;SDS011;5842;52.426;4.886;2022-10-16T04:11:45;12.83;;;11.53;;
11572;SDS011;5842;52.426;4.886;2022-10-16T04:14:13;14.37;;;12.90;;
11572;SDS011;5842;52.426;4.886;2022-10-16T04:16:41;14.77;;;13.27;;
11572;SDS011;5842;52.426;4.886;2022-10-16T04:19:08;14.57;;;13.17;;
11572;SDS011;5842;52.426;4.886;2022-10-16T04:21:36;12.53;;;11.23;;
11572;SDS011;5842;52.426;4.886;2022-10-16T04:24:03;10.67;;;9.03;;
11572;SDS011;5842;52.426;4.886;2022-10-16T04:26:30;11.37;;;9.87;;
11572;SDS011;5842;52.426;4.886;2022-10-16T04:28:57;15.37;;;13.77;;
11572;SDS011;5842;52.426;4.886;2022-10-16T04:31:26;14.77;;;13.27;;
11572;SDS011;5842;52.426;4.886;2022-10-16T04:33:53;16.57;;;14.17;;
11572;SDS011;5842;52.426;4.886;2022-10-16T04:36:20;12.30;;;9.77;;
11572;SDS011;5842;52.426;4.886;2022-10-16T04:38:47;10.30;;;8.10;;
11572;SDS011;5842;52.426;4.886;2022-10-16T04:41:15;12.60;;;9.77;;
11572;SDS011;5842;52.426;4.886;2022-10-16T04:43:42;10.43;;;9.30;;
11572;SDS011;5842;52.426;4.886;2022-10-16T04:46:09;10.53;;;8.17;;
11572;SDS011;5842;52.426;4.886;2022-10-16T04:48:39;12.67;;;7.90;;
11572;SDS011;5842;52.426;4.886;2022-10-16T04:51:06;8.97;;;4.47;;
11572;SDS011;5842;52.426;4.886;2022-10-16T04:53:33;5.53;;;3.27;;
11572;SDS011;5842;52.426;4.886;2022-10-16T04:56:00;6.67;;;2.90;;
11572;SDS011;5842;52.426;4.886;2022-10-16T04:58:27;7.30;;;2.77;;
11572;SDS011;5842;52.426;4.886;2022-10-16T05:00:54;4.13;;;2.57;;
11572;SDS011;5842;52.426;4.886;2022-10-16T05:03:21;5.87;;;2.30;;
11572;SDS011;5842;52.426;4.886;2022-10-16T05:05:50;6.30;;;3.33;;
11572;SDS011;5842;52.426;4.886;2022-10-16T05:08:17;6.10;;;3.60;;
11572;SDS011;5842;52.426;4.886;2022-10-16T05:10:44;7.53;;;6.20;;
11572;SDS011;5842;52.426;4.886;2022-10-16T05:13:11;6.27;;;4.67;;
11572;SDS011;5842;52.426;4.886;2022-10-16T05:15:39;5.67;;;4.63;;
11572;SDS011;5842;52.426;4.886;2022-10-16T05:18:06;7.63;;;3.63;;
11572;SDS011;5842;52.426;4.886;2022-10-16T05:20:34;10.33;;;4.17;;
11572;SDS011;5842;52.426;4.886;2022-10-16T05:23:06;6.17;;;5.37;;
11572;SDS011;5842;52.426;4.886;2022-10-16T05:25:35;10.63;;;8.90;;
11572;SDS011;5842;52.426;4.886;2022-10-16T05:28:02;12.20;;;9.60;;
11572;SDS011;5842;52.426;4.886;2022-10-16T05:30:29;10.77;;;8.00;;
11572;SDS011;5842;52.426;4.886;2022-10-16T05:32:56;6.00;;;5.40;;
11572;SDS011;5842;52.426;4.886;2022-10-16T05:35:23;15.70;;;9.57;;
11572;SDS011;5842;52.426;4.886;2022-10-16T05:37:50;9.73;;;7.70;;
11572;SDS011;5842;52.426;4.886;2022-10-16T05:40:20;6.67;;;5.60;;
11572;SDS011;5842;52.426;4.886;2022-10-16T05:42:47;8.57;;;5.17;;
11572;SDS011;5842;52.426;4.886;2022-10-16T05:45:14;8.17;;;5.37;;
11572;SDS011;5842;52.426;4.886;2022-10-16T05:47:42;6.97;;;5.13;;
11572;SDS011;5842;52.426;4.886;2022-10-16T05:50:09;9.70;;;6.37;;
11572;SDS011;5842;52.426;4.886;2022-10-16T05:52:36;8.43;;;7.47;;
11572;SDS011;5842;52.426;4.886;2022-10-16T05:55:03;11.10;;;8.20;;
11572;SDS011;5842;52.426;4.886;2022-10-16T05:57:32;12.40;;;10.00;;
11572;SDS011;5842;52.426;4.886;2022-10-16T05:59:59;10.40;;;9.30;;
11572;SDS011;5842;52.426;4.886;2022-10-16T06:02:26;11.00;;;9.73;;
11572;SDS011;5842;52.426;4.886;2022-10-16T06:04:53;13.07;;;8.07;;
11572;SDS011;5842;52.426;4.886;2022-10-16T06:07:20;5.43;;;4.90;;
11572;SDS011;5842;52.426;4.886;2022-10-16T06:09:48;9.83;;;7.87;;
11572;SDS011;5842;52.426;4.886;2022-10-16T06:12:16;10.27;;;6.00;;
11572;SDS011;5842;52.426;4.886;2022-10-16T06:14:45;9.57;;;8.20;;
11572;SDS011;5842;52.426;4.886;2022-10-16T06:17:15;8.47;;;5.97;;
11572;SDS011;5842;52.426;4.886;2022-10-16T06:19:43;6.47;;;3.80;;
11572;SDS011;5842;52.426;4.886;2022-10-16T06:22:10;6.27;;;4.20;;
11572;SDS011;5842;52.426;4.886;2022-10-16T06:24:37;6.87;;;3.57;;
11572;SDS011;5842;52.426;4.886;2022-10-16T06:27:04;5.43;;;3.20;;
11572;SDS011;5842;52.426;4.886;2022-10-16T06:29:31;8.73;;;3.47;;
11572;SDS011;5842;52.426;4.886;2022-10-16T06:31:59;7.30;;;2.93;;
11572;SDS011;5842;52.426;4.886;2022-10-16T06:34:26;5.90;;;2.90;;
11572;SDS011;5842;52.426;4.886;2022-10-16T06:36:54;6.10;;;3.07;;
11572;SDS011;5842;52.426;4.886;2022-10-16T06:39:21;4.77;;;2.80;;
11572;SDS011;5842;52.426;4.886;2022-10-16T06:41:48;5.80;;;2.90;;
11572;SDS011;5842;52.426;4.886;2022-10-16T06:44:15;5.40;;;2.90;;
11572;SDS011;5842;52.426;4.886;2022-10-16T06:46:43;4.93;;;3.03;;
11572;SDS011;5842;52.426;4.886;2022-10-16T06:49:12;5.27;;;3.50;;
11572;SDS011;5842;52.426;4.886;2022-10-16T06:51:46;5.53;;;3.10;;
11572;SDS011;5842;52.426;4.886;2022-10-16T06:54:14;7.07;;;3.30;;
11572;SDS011;5842;52.426;4.886;2022-10-16T06:56:42;8.10;;;4.10;;
11572;SDS011;5842;52.426;4.886;2022-10-16T06:59:09;6.13;;;3.90;;
11572;SDS011;5842;52.426;4.886;2022-10-16T07:01:37;7.53;;;3.53;;
11572;SDS011;5842;52.426;4.886;2022-10-16T07:04:04;6.77;;;3.60;;
11572;SDS011;5842;52.426;4.886;2022-10-16T07:06:33;5.03;;;3.50;;
11572;SDS011;5842;52.426;4.886;2022-10-16T07:09:01;4.70;;;3.20;;
11572;SDS011;5842;52.426;4.886;2022-10-16T07:11:30;3.93;;;2.90;;
11572;SDS011;5842;52.426;4.886;2022-10-16T07:13:58;6.57;;;3.33;;
11572;SDS011;5842;52.426;4.886;2022-10-16T07:16:26;4.87;;;2.60;;
11572;SDS011;5842;52.426;4.886;2022-10-16T07:18:54;7.23;;;3.00;;
11572;SDS011;5842;52.426;4.886;2022-10-16T07:38:11;5.40;;;2.50;;
11572;SDS011;5842;52.426;4.886;2022-10-16T07:40:38;4.67;;;2.20;;
11572;SDS011;5842;52.426;4.886;2022-10-16T07:43:06;5.43;;;2.17;;
11572;SDS011;5842;52.426;4.886;2022-10-16T07:45:33;7.77;;;2.20;;
11572;SDS011;5842;52.426;4.886;2022-10-16T07:48:00;5.33;;;1.90;;
11572;SDS011;5842;52.426;4.886;2022-10-16T07:50:27;5.93;;;2.00;;
11572;SDS011;5842;52.426;4.886;2022-10-16T09:17:30;9.00;;;2.83;;
11572;SDS011;5842;52.426;4.886;2022-10-16T09:20:22;10.23;;;2.60;;
11572;SDS011;5842;52.426;4.886;2022-10-16T09:23:07;8.77;;;2.70;;
11572;SDS011;5842;52.426;4.886;2022-10-16T09:25:39;7.90;;;2.43;;
11572;SDS011;5842;52.426;4.886;2022-10-16T09:28:09;9.43;;;2.60;;
11572;SDS011;5842;52.426;4.886;2022-10-16T09:30:36;12.37;;;2.70;;
11572;SDS011;5842;52.426;4.886;2022-10-16T09:33:05;5.67;;;2.20;;
11572;SDS011;5842;52.426;4.886;2022-10-16T09:35:37;7.73;;;2.60;;
11572;SDS011;5842;52.426;4.886;2022-10-16T09:38:06;9.97;;;2.80;;
11572;SDS011;5842;52.426;4.886;2022-10-16T09:40:35;11.27;;;3.00;;
11572;SDS011;5842;52.426;4.886;2022-10-16T09:43:07;12.97;;;2.80;;
11572;SDS011;5842;52.426;4.886;2022-10-16T09:45:53;10.20;;;3.07;;
11572;SDS011;5842;52.426;4.886;2022-10-16T09:48:21;11.40;;;2.60;;
11572;SDS011;5842;52.426;4.886;2022-10-16T09:50:56;13.47;;;3.10;;
11572;SDS011;5842;52.426;4.886;2022-10-16T09:53:25;10.37;;;2.60;;
11572;SDS011;5842;52.426;4.886;2022-10-16T09:56:04;11.53;;;2.70;;
11572;SDS011;5842;52.426;4.886;2022-10-16T09:58:32;15.07;;;2.77;;
11572;SDS011;5842;52.426;4.886;2022-10-16T10:00:59;13.83;;;2.90;;
11572;SDS011;5842;52.426;4.886;2022-10-16T10:03:32;12.13;;;2.57;;
11572;SDS011;5842;52.426;4.886;2022-10-16T10:06:05;11.40;;;2.13;;
11572;SDS011;5842;52.426;4.886;2022-10-16T10:08:52;11.37;;;2.80;;
11572;SDS011;5842;52.426;4.886;2022-10-16T10:11:43;10.83;;;2.40;;
11572;SDS011;5842;52.426;4.886;2022-10-16T10:14:27;12.70;;;2.83;;
11572;SDS011;5842;52.426;4.886;2022-10-16T10:17:12;9.77;;;2.50;;
11572;SDS011;5842;52.426;4.886;2022-10-16T10:19:41;7.97;;;2.20;;
11572;SDS011;5842;52.426;4.886;2022-10-16T10:22:27;12.87;;;2.70;;
11572;SDS011;5842;52.426;4.886;2022-10-16T10:25:14;12.13;;;2.50;;
11572;SDS011;5842;52.426;4.886;2022-10-16T10:27:49;7.10;;;2.33;;
11572;SDS011;5842;52.426;4.886;2022-10-16T10:30:32;12.63;;;2.30;;
11572;SDS011;5842;52.426;4.886;2022-10-16T10:35:56;8.93;;;2.17;;
11572;SDS011;5842;52.426;4.886;2022-10-16T10:38:38;8.60;;;2.17;;
11572;SDS011;5842;52.426;4.886;2022-10-16T10:41:18;12.17;;;2.37;;
11572;SDS011;5842;52.426;4.886;2022-10-16T10:44:01;11.47;;;2.70;;
11572;SDS011;5842;52.426;4.886;2022-10-16T10:46:39;14.33;;;3.00;;
11572;SDS011;5842;52.426;4.886;2022-10-16T10:52:17;9.83;;;2.53;;
11572;SDS011;5842;52.426;4.886;2022-10-16T10:55:06;9.50;;;2.10;;
11572;SDS011;5842;52.426;4.886;2022-10-16T10:57:42;9.10;;;2.27;;
11572;SDS011;5842;52.426;4.886;2022-10-16T11:00:21;10.07;;;2.57;;
11572;SDS011;5842;52.426;4.886;2022-10-16T11:02:55;9.87;;;2.27;;
11572;SDS011;5842;52.426;4.886;2022-10-16T11:05:40;7.03;;;2.13;;
11572;SDS011;5842;52.426;4.886;2022-10-16T11:08:11;7.87;;;2.13;;
11572;SDS011;5842;52.426;4.886;2022-10-16T11:10:57;9.77;;;2.47;;
11572;SDS011;5842;52.426;4.886;2022-10-16T11:13:29;8.60;;;2.30;;
11572;SDS011;5842;52.426;4.886;2022-10-16T11:16:00;12.83;;;2.47;;
11572;SDS011;5842;52.426;4.886;2022-10-16T11:18:33;10.00;;;2.57;;
11572;SDS011;5842;52.426;4.886;2022-10-16T11:21:09;9.70;;;2.40;;
11572;SDS011;5842;52.426;4.886;2022-10-16T11:23:40;11.07;;;2.20;;
11572;SDS011;5842;52.426;4.886;2022-10-16T11:26:15;12.67;;;2.30;;
11572;SDS011;5842;52.426;4.886;2022-10-16T11:28:47;9.30;;;2.00;;
11572;SDS011;5842;52.426;4.886;2022-10-16T11:31:22;9.30;;;1.90;;
11572;SDS011;5842;52.426;4.886;2022-10-16T11:33:59;10.27;;;2.03;;
11572;SDS011;5842;52.426;4.886;2022-10-16T11:36:32;9.43;;;2.00;;
11572;SDS011;5842;52.426;4.886;2022-10-16T11:39:03;9.10;;;2.30;;
11572;SDS011;5842;52.426;4.886;2022-10-16T11:41:42;8.20;;;2.23;;
11572;SDS011;5842;52.426;4.886;2022-10-16T11:44:21;7.23;;;2.03;;
11572;SDS011;5842;52.426;4.886;2022-10-16T11:47:01;10.77;;;2.00;;
11572;SDS011;5842;52.426;4.886;2022-10-16T11:49:38;7.67;;;2.00;;
11572;SDS011;5842;52.426;4.886;2022-10-16T11:52:07;7.33;;;2.03;;
11572;SDS011;5842;52.426;4.886;2022-10-16T11:54:44;8.63;;;2.20;;
11572;SDS011;5842;52.426;4.886;2022-10-16T11:57:20;10.77;;;1.83;;
11572;SDS011;5842;52.426;4.886;2022-10-16T11:59:55;6.70;;;2.00;;
11572;SDS011;5842;52.426;4.886;2022-10-16T12:02:30;5.87;;;1.63;;
11572;SDS011;5842;52.426;4.886;2022-10-16T12:05:07;7.93;;;2.00;;
11572;SDS011;5842;52.426;4.886;2022-10-16T12:07:47;7.30;;;2.23;;
11572;SDS011;5842;52.426;4.886;2022-10-16T12:10:21;11.07;;;1.90;;
11572;SDS011;5842;52.426;4.886;2022-10-16T12:12:51;6.03;;;1.70;;
11572;SDS011;5842;52.426;4.886;2022-10-16T12:15:20;12.30;;;2.50;;
11572;SDS011;5842;52.426;4.886;2022-10-16T12:17:49;6.93;;;1.90;;
11572;SDS011;5842;52.426;4.886;2022-10-16T12:20:22;6.63;;;1.87;;
11572;SDS011;5842;52.426;4.886;2022-10-16T12:22:57;4.90;;;1.73;;
11572;SDS011;5842;52.426;4.886;2022-10-16T12:25:33;7.07;;;2.23;;
11572;SDS011;5842;52.426;4.886;2022-10-16T12:28:20;8.07;;;2.20;;
11572;SDS011;5842;52.426;4.886;2022-10-16T12:30:52;6.27;;;1.80;;
11572;SDS011;5842;52.426;4.886;2022-10-16T12:33:22;6.33;;;1.93;;
11572;SDS011;5842;52.426;4.886;2022-10-16T12:35:51;8.83;;;2.20;;
11572;SDS011;5842;52.426;4.886;2022-10-16T12:38:20;8.87;;;1.70;;
11572;SDS011;5842;52.426;4.886;2022-10-16T12:40:54;7.17;;;2.20;;
11572;SDS011;5842;52.426;4.886;2022-10-16T12:43:39;9.77;;;2.17;;
11572;SDS011;5842;52.426;4.886;2022-10-16T12:46:22;8.63;;;1.80;;
11572;SDS011;5842;52.426;4.886;2022-10-16T12:49:04;9.33;;;2.43;;
11572;SDS011;5842;52.426;4.886;2022-10-16T12:51:48;10.53;;;2.07;;
11572;SDS011;5842;52.426;4.886;2022-10-16T12:54:15;9.33;;;2.13;;
11572;SDS011;5842;52.426;4.886;2022-10-16T12:56:47;5.37;;;1.70;;
11572;SDS011;5842;52.426;4.886;2022-10-16T12:59:28;8.87;;;2.17;;
11572;SDS011;5842;52.426;4.886;2022-10-16T13:02:11;7.70;;;1.90;;
11572;SDS011;5842;52.426;4.886;2022-10-16T13:05:13;6.97;;;1.80;;
11572;SDS011;5842;52.426;4.886;2022-10-16T13:07:52;5.13;;;1.63;;
11572;SDS011;5842;52.426;4.886;2022-10-16T13:10:28;7.50;;;1.80;;
11572;SDS011;5842;52.426;4.886;2022-10-16T13:13:05;6.30;;;1.63;;
11572;SDS011;5842;52.426;4.886;2022-10-16T13:15:52;7.50;;;1.80;;
11572;SDS011;5842;52.426;4.886;2022-10-16T13:18:35;9.00;;;2.00;;
11572;SDS011;5842;52.426;4.886;2022-10-16T13:21:19;7.10;;;1.50;;
11572;SDS011;5842;52.426;4.886;2022-10-16T13:23:59;7.87;;;1.93;;
11572;SDS011;5842;52.426;4.886;2022-10-16T13:26:38;7.77;;;1.63;;
11572;SDS011;5842;52.426;4.886;2022-10-16T13:29:10;8.57;;;1.67;;
11572;SDS011;5842;52.426;4.886;2022-10-16T13:31:41;7.73;;;1.63;;
11572;SDS011;5842;52.426;4.886;2022-10-16T13:34:11;3.20;;;1.47;;
11572;SDS011;5842;52.426;4.886;2022-10-16T13:36:45;7.37;;;1.40;;
11572;SDS011;5842;52.426;4.886;2022-10-16T13:39:15;5.93;;;1.80;;
11572;SDS011;5842;52.426;4.886;2022-10-16T13:41:57;6.30;;;1.50;;
11572;SDS011;5842;52.426;4.886;2022-10-16T13:44:28;5.23;;;1.53;;
11572;SDS011;5842;52.426;4.886;2022-10-16T13:47:03;6.00;;;1.53;;
11572;SDS011;5842;52.426;4.886;2022-10-16T13:49:30;8.47;;;1.87;;
11572;SDS011;5842;52.426;4.886;2022-10-16T13:51:58;8.20;;;1.97;;
11572;SDS011;5842;52.426;4.886;2022-10-16T13:54:26;6.77;;;1.83;;
11572;SDS011;5842;52.426;4.886;2022-10-16T13:56:54;5.77;;;1.77;;
11572;SDS011;5842;52.426;4.886;2022-10-16T13:59:23;6.77;;;1.80;;
11572;SDS011;5842;52.426;4.886;2022-10-16T14:01:51;7.60;;;1.80;;
11572;SDS011;5842;52.426;4.886;2022-10-16T14:04:24;4.87;;;1.60;;
11572;SDS011;5842;52.426;4.886;2022-10-16T14:06:54;11.73;;;1.90;;
11572;SDS011;5842;52.426;4.886;2022-10-16T14:09:22;7.33;;;1.77;;
11572;SDS011;5842;52.426;4.886;2022-10-16T14:11:54;4.67;;;1.60;;
11572;SDS011;5842;52.426;4.886;2022-10-16T14:14:24;3.40;;;1.30;;
11572;SDS011;5842;52.426;4.886;2022-10-16T14:16:53;6.20;;;1.63;;
11572;SDS011;5842;52.426;4.886;2022-10-16T14:19:21;4.57;;;1.70;;
11572;SDS011;5842;52.426;4.886;2022-10-16T14:21:53;7.00;;;1.63;;
11572;SDS011;5842;52.426;4.886;2022-10-16T14:24:27;4.93;;;1.53;;
11572;SDS011;5842;52.426;4.886;2022-10-16T14:27:01;6.73;;;2.00;;
11572;SDS011;5842;52.426;4.886;2022-10-16T14:29:47;5.87;;;1.60;;
11572;SDS011;5842;52.426;4.886;2022-10-16T14:32:21;6.33;;;2.00;;
11572;SDS011;5842;52.426;4.886;2022-10-16T14:34:54;8.07;;;1.77;;
11572;SDS011;5842;52.426;4.886;2022-10-16T14:37:22;5.87;;;1.70;;
11572;SDS011;5842;52.426;4.886;2022-10-16T14:39:51;8.00;;;2.30;;
11572;SDS011;5842;52.426;4.886;2022-10-16T14:42:20;5.53;;;2.07;;
11572;SDS011;5842;52.426;4.886;2022-10-16T14:44:50;4.57;;;1.60;;
11572;SDS011;5842;52.426;4.886;2022-10-16T14:47:19;6.40;;;1.70;;
11572;SDS011;5842;52.426;4.886;2022-10-16T14:49:50;8.57;;;2.00;;
11572;SDS011;5842;52.426;4.886;2022-10-16T14:52:19;5.93;;;1.47;;
11572;SDS011;5842;52.426;4.886;2022-10-16T14:54:47;8.40;;;1.90;;
11572;SDS011;5842;52.426;4.886;2022-10-16T14:57:16;5.70;;;1.67;;
11572;SDS011;5842;52.426;4.886;2022-10-16T14:59:44;6.63;;;1.87;;
11572;SDS011;5842;52.426;4.886;2022-10-16T15:02:16;4.80;;;1.73;;
11572;SDS011;5842;52.426;4.886;2022-10-16T15:04:47;6.90;;;2.03;;
11572;SDS011;5842;52.426;4.886;2022-10-16T15:07:15;5.93;;;2.10;;
11572;SDS011;5842;52.426;4.886;2022-10-16T15:09:43;9.03;;;1.90;;
11572;SDS011;5842;52.426;4.886;2022-10-16T15:12:10;6.93;;;1.90;;
11572;SDS011;5842;52.426;4.886;2022-10-16T15:14:37;9.13;;;2.30;;
11572;SDS011;5842;52.426;4.886;2022-10-16T15:17:04;9.10;;;2.10;;
11572;SDS011;5842;52.426;4.886;2022-10-16T15:19:31;6.87;;;1.83;;
11572;SDS011;5842;52.426;4.886;2022-10-16T15:21:59;3.83;;;1.60;;
11572;SDS011;5842;52.426;4.886;2022-10-16T15:24:26;7.80;;;2.00;;
11572;SDS011;5842;52.426;4.886;2022-10-16T15:26:55;5.40;;;1.80;;
11572;SDS011;5842;52.426;4.886;2022-10-16T15:29:22;6.80;;;2.00;;
11572;SDS011;5842;52.426;4.886;2022-10-16T15:31:49;5.47;;;1.80;;
11572;SDS011;5842;52.426;4.886;2022-10-16T15:34:16;6.07;;;1.80;;
11572;SDS011;5842;52.426;4.886;2022-10-16T15:36:45;5.17;;;1.60;;
11572;SDS011;5842;52.426;4.886;2022-10-16T15:39:13;7.50;;;2.23;;
11572;SDS011;5842;52.426;4.886;2022-10-16T15:41:42;5.40;;;1.97;;
11572;SDS011;5842;52.426;4.886;2022-10-16T15:44:17;6.10;;;1.73;;
11572;SDS011;5842;52.426;4.886;2022-10-16T15:46:44;9.43;;;2.67;;
11572;SDS011;5842;52.426;4.886;2022-10-16T15:49:12;7.57;;;2.33;;
11572;SDS011;5842;52.426;4.886;2022-10-16T15:51:39;7.37;;;2.40;;
11572;SDS011;5842;52.426;4.886;2022-10-16T15:54:07;6.60;;;2.00;;
11572;SDS011;5842;52.426;4.886;2022-10-16T15:56:35;4.53;;;1.77;;
11572;SDS011;5842;52.426;4.886;2022-10-16T15:59:04;6.93;;;2.10;;
11572;SDS011;5842;52.426;4.886;2022-10-16T16:01:33;9.80;;;2.17;;
11572;SDS011;5842;52.426;4.886;2022-10-16T16:04:03;6.40;;;1.90;;
11572;SDS011;5842;52.426;4.886;2022-10-16T16:06:30;6.60;;;2.03;;
11572;SDS011;5842;52.426;4.886;2022-10-16T16:08:58;8.67;;;2.10;;
11572;SDS011;5842;52.426;4.886;2022-10-16T16:11:25;6.17;;;2.10;;
11572;SDS011;5842;52.426;4.886;2022-10-16T16:13:52;6.33;;;2.20;;
11572;SDS011;5842;52.426;4.886;2022-10-16T16:16:20;5.57;;;2.13;;
11572;SDS011;5842;52.426;4.886;2022-10-16T16:18:53;7.43;;;2.00;;
11572;SDS011;5842;52.426;4.886;2022-10-16T16:21:20;5.93;;;2.00;;
11572;SDS011;5842;52.426;4.886;2022-10-16T16:23:48;7.57;;;2.57;;
11572;SDS011;5842;52.426;4.886;2022-10-16T16:26:22;6.17;;;2.80;;
11572;SDS011;5842;52.426;4.886;2022-10-16T16:28:52;8.33;;;2.83;;
11572;SDS011;5842;52.426;4.886;2022-10-16T16:31:24;8.37;;;3.10;;
11572;SDS011;5842;52.426;4.886;2022-10-16T16:33:54;9.23;;;3.20;;
11572;SDS011;5842;52.426;4.886;2022-10-16T16:36:23;7.83;;;3.20;;
11572;SDS011;5842;52.426;4.886;2022-10-16T16:38:51;7.40;;;3.77;;
11572;SDS011;5842;52.426;4.886;2022-10-16T16:41:19;12.37;;;4.30;;
11572;SDS011;5842;52.426;4.886;2022-10-16T16:43:47;12.87;;;4.97;;
11572;SDS011;5842;52.426;4.886;2022-10-16T16:46:16;9.80;;;5.07;;
11572;SDS011;5842;52.426;4.886;2022-10-16T16:48:44;10.00;;;5.00;;
11572;SDS011;5842;52.426;4.886;2022-10-16T16:51:14;10.87;;;4.40;;
11572;SDS011;5842;52.426;4.886;2022-10-16T16:53:43;9.63;;;3.27;;
11572;SDS011;5842;52.426;4.886;2022-10-16T16:56:10;10.20;;;3.70;;
11572;SDS011;5842;52.426;4.886;2022-10-16T16:58:40;7.27;;;3.10;;
11572;SDS011;5842;52.426;4.886;2022-10-16T17:01:09;10.70;;;4.93;;
11572;SDS011;5842;52.426;4.886;2022-10-16T17:03:36;9.80;;;3.77;;
11572;SDS011;5842;52.426;4.886;2022-10-16T17:06:04;7.63;;;3.57;;
11572;SDS011;5842;52.426;4.886;2022-10-16T17:08:34;7.40;;;3.43;;